CMA CGM La Boussole — A8FZ6 — position and weather

sailwx.info

Track history (hours):
 
Tides and Currents Weather Stations Pressure Air Temp Water Temp Dewpoint Dewpoint Depression Visibility Wind Speed Wind Dir Waves Ship Positions

CMA CGM La Boussole

Last reported at 2016-Feb-06 02:16 UTC. Time now 2016-Feb-06 07:22 UTC.
Position N 40°25' E 001°10'.

Length 210.1 m; beam 30.2 m; draft 11.5 m.

Type: Ship (hazmat cat A). MMSI: 636017045.

Date/timePositionNaut miles runAvg speedWind from/ knotsBaromVisibWave heightAir tempDewpointWater temp
2016-Feb-06 02:16N 40°25' E 001°10'7 9.6
2016-Feb-06 01:33N 40°28' E 001°18'1110.0
2016-Feb-06 00:30N 40°37' E 001°26'1110.1
2016-Feb-05 23:26N 40°46' E 001°34'910.0
2016-Feb-05 22:31N 40°53' E 001°41'10 9.9
2016-Feb-05 21:33N 41°00' E 001°49'1010.1
2016-Feb-05 20:31N 41°08' E 001°59'1110.2
2016-Feb-05 19:29N 41°15' E 002°09'6 1.4
2016-Feb-05 15:10N 41°21' E 002°10'2 0.5
2016-Feb-05 11:33N 41°19' E 002°10'6 5.1
2016-Feb-05 10:28N 41°18' E 002°17'1314.3
2016-Feb-05 09:33N 41°23' E 002°33'1515.1
2016-Feb-05 08:33N 41°32' E 002°49'2115.0
2016-Feb-05 07:09N 41°44' E 003°12'914.9
2016-Feb-05 06:31N 41°49' E 003°23'7515.0
2016-Feb-05 01:33N 42°45' E 004°29'1514.7
2016-Feb-05 00:33N 42°56' E 004°42'1514.9
2016-Feb-04 23:33N 43°08' E 004°56'1413.5
2016-Feb-04 22:33N 43°21' E 004°58'6 5.9
2016-Feb-04 21:33N 43°24' E 004°51'0 0.0
2016-Feb-04 20:31N 43°24' E 004°51'0 0.0
2016-Feb-04 19:33N 43°24' E 004°51'0 0.0
2016-Feb-04 18:33N 43°24' E 004°51'0 0.0
2016-Feb-04 17:33N 43°24' E 004°51'0 0.0
2016-Feb-04 16:32N 43°24' E 004°51'0 0.0
2016-Feb-04 15:32N 43°24' E 004°51'0 0.0
2016-Feb-04 14:31N 43°24' E 004°51'0 0.0
2016-Feb-04 13:28N 43°24' E 004°51'0 0.0
2016-Feb-04 12:34N 43°24' E 004°51'0 0.0
2016-Feb-04 11:33N 43°24' E 004°51'0 0.0
2016-Feb-04 10:33N 43°24' E 004°51'0 0.0
2016-Feb-04 09:32N 43°24' E 004°51'0 0.0
2016-Feb-04 08:32N 43°24' E 004°51'0 0.0
2016-Feb-04 07:31N 43°24' E 004°51'0 0.0
2016-Feb-04 06:31N 43°24' E 004°51'0 0.0
2016-Feb-04 05:33N 43°24' E 004°51'0 0.0
2016-Feb-04 04:33N 43°24' E 004°51'2 1.7
2016-Feb-04 03:34N 43°24' E 004°53'10 9.9
2016-Feb-04 02:33N 43°16' E 005°01'1515.2
2016-Feb-04 01:33N 43°05' E 005°16'7216.8
2016-Feb-03 21:15N 43°08' E 006°55'1319.1
2016-Feb-03 20:33N 43°15' E 007°10'1918.7
2016-Feb-03 19:33N 43°26' E 007°31'4519.8
2016-Feb-03 17:18N 43°52' E 008°21'1520.5
2016-Feb-03 16:33N 44°03' E 008°35'2019.5
2016-Feb-03 15:33N 44°17' E 008°54'7 6.9
2016-Feb-03 14:33N 44°24' E 008°54'0 0.0
2016-Feb-03 13:33N 44°24' E 008°54'0 0.0
2016-Feb-03 12:33N 44°24' E 008°54'0 0.0
2016-Feb-03 11:33N 44°24' E 008°54'0 0.0
2016-Feb-03 10:33N 44°24' E 008°54'0 0.0
2016-Feb-03 09:33N 44°24' E 008°54'0 0.0
2016-Feb-03 08:33N 44°24' E 008°54'0 0.0
2016-Feb-03 07:33N 44°24' E 008°54'0 0.0
2016-Feb-03 06:33N 44°24' E 008°54'0 0.0
2016-Feb-03 05:33N 44°24' E 008°54'0 0.0
2016-Feb-03 04:33N 44°24' E 008°54'0 0.0
2016-Feb-03 03:33N 44°24' E 008°54'0 0.0
2016-Feb-03 02:33N 44°24' E 008°54'0 0.0
2016-Feb-03 01:33N 44°24' E 008°54'0 0.0
2016-Feb-03 00:33N 44°24' E 008°54'0 0.0
2016-Feb-02 23:33N 44°24' E 008°54'0 0.0
2016-Feb-02 22:33N 44°24' E 008°54'0 0.0
2016-Feb-02 21:33N 44°24' E 008°54'0 0.0
2016-Feb-02 20:33N 44°24' E 008°54'0 0.0
2016-Feb-02 19:33N 44°24' E 008°54'0 0.2
2016-Feb-02 18:33N 44°24' E 008°54'3 3.5
2016-Feb-02 17:33N 44°22' E 008°58'3 2.7
2016-Feb-02 16:34N 44°20' E 008°60'1716.5
2016-Feb-02 15:33N 44°07' E 009°14'1918.6
2016-Feb-02 14:33N 43°53' E 009°31'1918.7
2016-Feb-02 13:33N 43°38' E 009°47'1717.3
2016-Feb-02 12:33N 43°31' E 010°09'8 7.8
2016-Feb-02 11:34N 43°34' E 010°18'0 0.2
2016-Feb-02 10:33N 43°35' E 010°18'0 0.0
2016-Feb-02 09:33N 43°35' E 010°18'0 0.0
2016-Feb-02 08:32N 43°35' E 010°18'0 0.0
2016-Feb-02 07:29N 43°35' E 010°18'0 0.0
2016-Feb-02 06:32N 43°35' E 010°18'0 0.0
2016-Feb-02 05:31N 43°35' E 010°18'0 0.0
2016-Feb-02 04:31N 43°35' E 010°18'0 0.0
2016-Feb-02 03:33N 43°35' E 010°18'0 0.0
2016-Feb-02 02:33N 43°35' E 010°18'0 0.0
2016-Feb-02 01:32N 43°35' E 010°18'0 0.0
2016-Feb-02 00:32N 43°35' E 010°18'0 0.0
2016-Feb-01 23:32N 43°35' E 010°18'0 0.0
2016-Feb-01 22:31N 43°35' E 010°18'0 0.0
2016-Feb-01 21:31N 43°35' E 010°18'0 0.0
2016-Feb-01 20:30N 43°35' E 010°18'0 0.0
2016-Feb-01 19:33N 43°35' E 010°18'0 0.0
2016-Feb-01 18:32N 43°35' E 010°18'0 0.0
2016-Feb-01 17:32N 43°35' E 010°18'0 0.0
2016-Feb-01 16:29N 43°35' E 010°18'0 0.0
2016-Feb-01 15:31N 43°35' E 010°18'0 0.0
2016-Feb-01 14:31N 43°35' E 010°18'0 0.0
2016-Feb-01 13:33N 43°35' E 010°18'0 0.0
2016-Feb-01 12:33N 43°35' E 010°18'0 0.3
2016-Feb-01 11:33N 43°34' E 010°18'6 5.9
2016-Feb-01 10:34N 43°29' E 010°15'2 1.5
2016-Feb-01 09:33N 43°28' E 010°13'1211.8
2016-Feb-01 08:33N 43°20' E 010°01'1313.1
2016-Feb-01 07:33N 43°16' E 009°44'1413.7
2016-Feb-01 06:33N 43°12' E 009°26'35416.9
2016-Jan-31 09:33N 39°14' E 003°37'1817.7
2016-Jan-31 08:32N 39°05' E 003°17'1818.1
2016-Jan-31 07:32N 38°56' E 002°57'1717.9
2016-Jan-31 06:34N 38°46' E 002°39'1918.9
2016-Jan-31 05:33N 38°36' E 002°18'13118.0
2016-Jan-30 22:15N 37°26' W 000°03'1317.6
2016-Jan-30 21:32N 37°19' W 000°16'2117.8
2016-Jan-30 20:20N 37°08' W 000°39'1418.0
2016-Jan-30 19:33N 37°00' W 000°54'21217.7
2016-Jan-30 07:32N 36°02' W 005°08'1515.0
2016-Jan-30 06:33N 36°07' W 005°25'1 0.6
2016-Jan-30 05:31N 36°08' W 005°25'0 0.1
2016-Jan-30 04:32N 36°08' W 005°25'0 0.1
2016-Jan-30 03:31N 36°08' W 005°25'0 0.1
2016-Jan-30 02:32N 36°08' W 005°25'0 0.1
2016-Jan-30 01:32N 36°08' W 005°25'0 0.0
2016-Jan-30 00:33N 36°08' W 005°25'0 0.0
2016-Jan-29 23:34N 36°08' W 005°25'0 0.0
2016-Jan-29 22:33N 36°08' W 005°25'0 0.0
2016-Jan-29 21:32N 36°08' W 005°25'0 0.0
2016-Jan-29 20:31N 36°08' W 005°25'0 0.0
2016-Jan-29 19:33N 36°08' W 005°25'0 0.1
2016-Jan-29 18:33N 36°08' W 005°25'3 2.8
2016-Jan-29 17:34N 36°06' W 005°23'  
Track history (hours):
 
Tides and Currents Weather Stations Pressure Air Temp Water Temp Dewpoint Dewpoint Depression Visibility Wind Speed Wind Dir Waves Ship Positions

CMA CGM La Boussole

Last reported at 2016-Feb-06 02:16 UTC. Time now 2016-Feb-06 07:22 UTC.
Position N 40°25' E 001°10'.

Length 210.1 m; beam 30.2 m; draft 11.5 m.

Type: Ship (hazmat cat A). MMSI: 636017045.

Date/timePositionNaut miles runAvg speedWind from/ knotsBaromVisibWave heightAir tempDewpointWater temp
2016-Feb-06 02:16N 40°25' E 001°10'7 9.6
2016-Feb-06 01:33N 40°28' E 001°18'1110.0
2016-Feb-06 00:30N 40°37' E 001°26'1110.1
2016-Feb-05 23:26N 40°46' E 001°34'910.0
2016-Feb-05 22:31N 40°53' E 001°41'10 9.9
2016-Feb-05 21:33N 41°00' E 001°49'1010.1
2016-Feb-05 20:31N 41°08' E 001°59'1110.2
2016-Feb-05 19:29N 41°15' E 002°09'6 1.4
2016-Feb-05 15:10N 41°21' E 002°10'2 0.5
2016-Feb-05 11:33N 41°19' E 002°10'6 5.1
2016-Feb-05 10:28N 41°18' E 002°17'1314.3
2016-Feb-05 09:33N 41°23' E 002°33'1515.1
2016-Feb-05 08:33N 41°32' E 002°49'2115.0
2016-Feb-05 07:09N 41°44' E 003°12'914.9
2016-Feb-05 06:31N 41°49' E 003°23'7515.0
2016-Feb-05 01:33N 42°45' E 004°29'1514.7
2016-Feb-05 00:33N 42°56' E 004°42'1514.9
2016-Feb-04 23:33N 43°08' E 004°56'1413.5
2016-Feb-04 22:33N 43°21' E 004°58'6 5.9
2016-Feb-04 21:33N 43°24' E 004°51'0 0.0
2016-Feb-04 20:31N 43°24' E 004°51'0 0.0
2016-Feb-04 19:33N 43°24' E 004°51'0 0.0
2016-Feb-04 18:33N 43°24' E 004°51'0 0.0
2016-Feb-04 17:33N 43°24' E 004°51'0 0.0
2016-Feb-04 16:32N 43°24' E 004°51'0 0.0
2016-Feb-04 15:32N 43°24' E 004°51'0 0.0
2016-Feb-04 14:31N 43°24' E 004°51'0 0.0
2016-Feb-04 13:28N 43°24' E 004°51'0 0.0
2016-Feb-04 12:34N 43°24' E 004°51'0 0.0
2016-Feb-04 11:33N 43°24' E 004°51'0 0.0
2016-Feb-04 10:33N 43°24' E 004°51'0 0.0
2016-Feb-04 09:32N 43°24' E 004°51'0 0.0
2016-Feb-04 08:32N 43°24' E 004°51'0 0.0
2016-Feb-04 07:31N 43°24' E 004°51'0 0.0
2016-Feb-04 06:31N 43°24' E 004°51'0 0.0
2016-Feb-04 05:33N 43°24' E 004°51'0 0.0
2016-Feb-04 04:33N 43°24' E 004°51'2 1.7
2016-Feb-04 03:34N 43°24' E 004°53'10 9.9
2016-Feb-04 02:33N 43°16' E 005°01'1515.2
2016-Feb-04 01:33N 43°05' E 005°16'7216.8
2016-Feb-03 21:15N 43°08' E 006°55'1319.1
2016-Feb-03 20:33N 43°15' E 007°10'1918.7
2016-Feb-03 19:33N 43°26' E 007°31'4519.8
2016-Feb-03 17:18N 43°52' E 008°21'1520.5
2016-Feb-03 16:33N 44°03' E 008°35'2019.5
2016-Feb-03 15:33N 44°17' E 008°54'7 6.9
2016-Feb-03 14:33N 44°24' E 008°54'0 0.0
2016-Feb-03 13:33N 44°24' E 008°54'0 0.0
2016-Feb-03 12:33N 44°24' E 008°54'0 0.0
2016-Feb-03 11:33N 44°24' E 008°54'0 0.0
2016-Feb-03 10:33N 44°24' E 008°54'0 0.0
2016-Feb-03 09:33N 44°24' E 008°54'0 0.0
2016-Feb-03 08:33N 44°24' E 008°54'0 0.0
2016-Feb-03 07:33N 44°24' E 008°54'0 0.0
2016-Feb-03 06:33N 44°24' E 008°54'0 0.0
2016-Feb-03 05:33N 44°24' E 008°54'0 0.0
2016-Feb-03 04:33N 44°24' E 008°54'0 0.0
2016-Feb-03 03:33N 44°24' E 008°54'0 0.0
2016-Feb-03 02:33N 44°24' E 008°54'0 0.0
2016-Feb-03 01:33N 44°24' E 008°54'0 0.0
2016-Feb-03 00:33N 44°24' E 008°54'0 0.0
2016-Feb-02 23:33N 44°24' E 008°54'0 0.0
2016-Feb-02 22:33N 44°24' E 008°54'0 0.0
2016-Feb-02 21:33N 44°24' E 008°54'0 0.0
2016-Feb-02 20:33N 44°24' E 008°54'0 0.0
2016-Feb-02 19:33N 44°24' E 008°54'0 0.2
2016-Feb-02 18:33N 44°24' E 008°54'3 3.5
2016-Feb-02 17:33N 44°22' E 008°58'3 2.7
2016-Feb-02 16:34N 44°20' E 008°60'1716.5
2016-Feb-02 15:33N 44°07' E 009°14'1918.6
2016-Feb-02 14:33N 43°53' E 009°31'1918.7
2016-Feb-02 13:33N 43°38' E 009°47'1717.3
2016-Feb-02 12:33N 43°31' E 010°09'8 7.8
2016-Feb-02 11:34N 43°34' E 010°18'0 0.2
2016-Feb-02 10:33N 43°35' E 010°18'0 0.0
2016-Feb-02 09:33N 43°35' E 010°18'0 0.0
2016-Feb-02 08:32N 43°35' E 010°18'0 0.0
2016-Feb-02 07:29N 43°35' E 010°18'0 0.0
2016-Feb-02 06:32N 43°35' E 010°18'0 0.0
2016-Feb-02 05:31N 43°35' E 010°18'0 0.0
2016-Feb-02 04:31N 43°35' E 010°18'0 0.0
2016-Feb-02 03:33N 43°35' E 010°18'0 0.0
2016-Feb-02 02:33N 43°35' E 010°18'0 0.0
2016-Feb-02 01:32N 43°35' E 010°18'0 0.0
2016-Feb-02 00:32N 43°35' E 010°18'0 0.0
2016-Feb-01 23:32N 43°35' E 010°18'0 0.0
2016-Feb-01 22:31N 43°35' E 010°18'0 0.0
2016-Feb-01 21:31N 43°35' E 010°18'0 0.0
2016-Feb-01 20:30N 43°35' E 010°18'0 0.0
2016-Feb-01 19:33N 43°35' E 010°18'0 0.0
2016-Feb-01 18:32N 43°35' E 010°18'0 0.0
2016-Feb-01 17:32N 43°35' E 010°18'0 0.0
2016-Feb-01 16:29N 43°35' E 010°18'0 0.0
2016-Feb-01 15:31N 43°35' E 010°18'0 0.0
2016-Feb-01 14:31N 43°35' E 010°18'0 0.0
2016-Feb-01 13:33N 43°35' E 010°18'0 0.0
2016-Feb-01 12:33N 43°35' E 010°18'0 0.3
2016-Feb-01 11:33N 43°34' E 010°18'6 5.9
2016-Feb-01 10:34N 43°29' E 010°15'2 1.5
2016-Feb-01 09:33N 43°28' E 010°13'1211.8
2016-Feb-01 08:33N 43°20' E 010°01'1313.1
2016-Feb-01 07:33N 43°16' E 009°44'1413.7
2016-Feb-01 06:33N 43°12' E 009°26'35416.9
2016-Jan-31 09:33N 39°14' E 003°37'1817.7
2016-Jan-31 08:32N 39°05' E 003°17'1818.1
2016-Jan-31 07:32N 38°56' E 002°57'1717.9
2016-Jan-31 06:34N 38°46' E 002°39'1918.9
2016-Jan-31 05:33N 38°36' E 002°18'13118.0
2016-Jan-30 22:15N 37°26' W 000°03'1317.6
2016-Jan-30 21:32N 37°19' W 000°16'2117.8
2016-Jan-30 20:20N 37°08' W 000°39'1418.0
2016-Jan-30 19:33N 37°00' W 000°54'21217.7
2016-Jan-30 07:32N 36°02' W 005°08'1515.0
2016-Jan-30 06:33N 36°07' W 005°25'1 0.6
2016-Jan-30 05:31N 36°08' W 005°25'0 0.1
2016-Jan-30 04:32N 36°08' W 005°25'0 0.1
2016-Jan-30 03:31N 36°08' W 005°25'0 0.1
2016-Jan-30 02:32N 36°08' W 005°25'0 0.1
2016-Jan-30 01:32N 36°08' W 005°25'0 0.0
2016-Jan-30 00:33N 36°08' W 005°25'0 0.0
2016-Jan-29 23:34N 36°08' W 005°25'0 0.0
2016-Jan-29 22:33N 36°08' W 005°25'0 0.0
2016-Jan-29 21:32N 36°08' W 005°25'0 0.0
2016-Jan-29 20:31N 36°08' W 005°25'0 0.0
2016-Jan-29 19:33N 36°08' W 005°25'0 0.1
2016-Jan-29 18:33N 36°08' W 005°25'3 2.8
2016-Jan-29 17:34N 36°06' W 005°23'  

Dump ship's entire track history